createdAt,value
2023-08-27T00:00:23.458Z,17.70
2023-08-27T00:02:50.540Z,17.70
2023-08-27T00:05:17.525Z,17.70
2023-08-27T00:07:44.667Z,17.70
2023-08-27T00:10:12.070Z,17.70
2023-08-27T00:12:40.725Z,17.70
2023-08-27T00:15:08.369Z,17.70
2023-08-27T00:17:36.371Z,17.70
2023-08-27T00:20:05.896Z,17.70
2023-08-27T00:22:32.875Z,17.60
2023-08-27T00:24:59.850Z,17.60
2023-08-27T00:27:27.124Z,17.50
2023-08-27T00:29:54.027Z,17.40
2023-08-27T00:32:25.865Z,17.40
2023-08-27T00:34:53.814Z,17.40
2023-08-27T00:37:23.343Z,17.40
2023-08-27T00:39:50.636Z,17.60
2023-08-27T00:42:17.597Z,17.40
2023-08-27T00:44:44.637Z,17.40
2023-08-27T00:47:13.851Z,17.40
2023-08-27T00:49:41.099Z,17.50
2023-08-27T00:52:10.147Z,17.60
2023-08-27T00:54:39.056Z,17.50
2023-08-27T00:57:07.764Z,17.60
2023-08-27T00:59:35.257Z,17.50
2023-08-27T01:02:03.743Z,17.60
2023-08-27T01:04:30.733Z,17.50
2023-08-27T01:07:07.229Z,17.50
2023-08-27T01:09:45.412Z,17.50
2023-08-27T01:12:34.352Z,17.50
2023-08-27T01:15:04.424Z,17.40
2023-08-27T01:17:33.610Z,17.30
2023-08-27T01:20:00.963Z,17.30
2023-08-27T01:22:29.678Z,17.10
2023-08-27T01:24:57.515Z,17.00
2023-08-27T01:27:54.582Z,17.00
2023-08-27T01:30:26.083Z,16.90
2023-08-27T01:33:04.618Z,16.90
2023-08-27T01:35:33.238Z,16.90
2023-08-27T01:38:00.520Z,16.90
2023-08-27T01:40:30.397Z,16.90
2023-08-27T01:42:57.953Z,17.00
2023-08-27T01:45:25.221Z,17.00
2023-08-27T01:47:52.223Z,17.10
2023-08-27T01:50:19.322Z,17.10
2023-08-27T01:52:46.328Z,17.10
2023-08-27T01:55:13.736Z,17.10
2023-08-27T01:57:41.158Z,17.20
2023-08-27T02:00:10.839Z,17.30
2023-08-27T02:02:45.098Z,17.20
2023-08-27T02:05:12.466Z,17.30
2023-08-27T02:07:41.053Z,17.20
2023-08-27T02:10:08.856Z,17.20
2023-08-27T02:12:36.546Z,17.30
2023-08-27T02:15:05.024Z,17.20
2023-08-27T02:17:32.840Z,17.30
2023-08-27T02:19:59.915Z,17.40
2023-08-27T02:22:26.844Z,17.30
2023-08-27T02:24:54.140Z,17.20
2023-08-27T02:27:21.153Z,17.30
2023-08-27T02:29:48.094Z,17.30
2023-08-27T02:32:14.982Z,17.40
2023-08-27T02:34:41.895Z,17.20
2023-08-27T02:37:08.787Z,17.20
2023-08-27T02:39:35.704Z,17.20
2023-08-27T02:42:03.864Z,17.20
2023-08-27T02:44:32.451Z,17.20
2023-08-27T02:46:59.395Z,17.20
2023-08-27T02:49:26.912Z,17.20
2023-08-27T02:51:55.399Z,17.10
2023-08-27T02:54:24.538Z,17.00
2023-08-27T02:56:51.685Z,17.00
2023-08-27T02:59:18.705Z,17.00
2023-08-27T03:01:45.725Z,17.00
2023-08-27T03:04:13.320Z,17.00
2023-08-27T03:06:40.234Z,17.00
2023-08-27T03:09:08.021Z,17.00
2023-08-27T03:11:34.964Z,16.90
2023-08-27T03:14:02.213Z,17.00
2023-08-27T03:16:30.763Z,17.00
2023-08-27T03:18:57.706Z,16.90
2023-08-27T03:21:24.608Z,16.90
2023-08-27T03:23:51.553Z,16.90
2023-08-27T03:26:18.547Z,17.00
2023-08-27T03:28:47.285Z,17.00
2023-08-27T03:31:15.114Z,17.00
2023-08-27T03:33:42.434Z,17.10
2023-08-27T03:36:09.539Z,17.10
2023-08-27T03:38:36.532Z,17.00
2023-08-27T03:41:03.492Z,17.00
2023-08-27T03:43:30.528Z,17.10
2023-08-27T03:45:57.553Z,17.00
2023-08-27T03:48:24.982Z,16.90
2023-08-27T03:50:53.295Z,16.90
2023-08-27T03:53:20.290Z,16.90
2023-08-27T03:55:47.597Z,17.00
2023-08-27T03:58:14.583Z,16.90
2023-08-27T04:00:41.820Z,16.90
2023-08-27T04:03:09.804Z,16.80
2023-08-27T04:05:38.883Z,16.90
2023-08-27T04:08:07.815Z,16.90
2023-08-27T04:10:34.801Z,16.90
2023-08-27T04:13:02.713Z,17.10
2023-08-27T04:15:32.321Z,16.90
2023-08-27T04:17:59.361Z,16.90
2023-08-27T04:20:26.426Z,17.00
2023-08-27T04:22:54.409Z,16.90
2023-08-27T04:25:25.095Z,16.90
2023-08-27T04:27:52.335Z,16.90
2023-08-27T04:30:19.455Z,17.00
2023-08-27T04:32:46.438Z,16.90
2023-08-27T04:35:13.515Z,16.90
2023-08-27T04:37:40.463Z,16.90
2023-08-27T04:40:08.264Z,16.90
2023-08-27T04:42:35.705Z,16.90
2023-08-27T04:45:02.680Z,16.90
2023-08-27T04:47:30.869Z,16.90
2023-08-27T04:50:02.242Z,16.90
2023-08-27T04:52:32.557Z,17.00
2023-08-27T04:55:00.284Z,16.80
2023-08-27T04:57:27.529Z,16.90
2023-08-27T04:59:57.423Z,16.80
2023-08-27T05:02:24.723Z,16.90
2023-08-27T05:04:52.224Z,16.80
2023-08-27T05:07:19.330Z,16.80
2023-08-27T05:09:47.858Z,16.80
2023-08-27T05:12:15.728Z,16.70
2023-08-27T05:14:45.181Z,16.80
2023-08-27T05:17:12.220Z,16.80
2023-08-27T05:19:39.611Z,16.80
2023-08-27T05:22:07.927Z,16.80
2023-08-27T05:24:36.103Z,16.80
2023-08-27T05:27:04.299Z,16.70
2023-08-27T05:29:31.282Z,16.70
2023-08-27T05:31:58.285Z,16.80
2023-08-27T05:34:25.584Z,16.80
2023-08-27T05:36:54.098Z,16.80
2023-08-27T05:39:21.308Z,16.80
2023-08-27T05:41:48.312Z,16.80
2023-08-27T05:44:16.548Z,16.90
2023-08-27T05:46:44.821Z,16.90
2023-08-27T05:49:13.151Z,16.90
2023-08-27T05:51:40.366Z,17.00
2023-08-27T05:54:07.385Z,17.00
2023-08-27T05:56:34.429Z,17.00
2023-08-27T05:59:01.423Z,17.10
2023-08-27T06:01:28.921Z,17.10
2023-08-27T06:03:57.173Z,17.30
2023-08-27T06:06:25.772Z,17.20
2023-08-27T06:08:52.869Z,17.20
2023-08-27T06:11:19.811Z,17.30
2023-08-27T06:13:46.800Z,17.30
2023-08-27T06:16:13.757Z,17.40
2023-08-27T06:18:40.846Z,17.30
2023-08-27T06:21:07.951Z,17.30
2023-08-27T06:23:35.590Z,17.30
2023-08-27T06:26:04.255Z,17.40
2023-08-27T06:28:31.806Z,17.40
2023-08-27T06:30:59.579Z,17.40
2023-08-27T06:33:27.245Z,17.40
2023-08-27T06:35:54.551Z,17.40
2023-08-27T06:38:21.777Z,17.40
2023-08-27T06:40:48.992Z,17.30
2023-08-27T06:43:15.962Z,17.30
2023-08-27T06:45:45.000Z,17.30
2023-08-27T06:48:12.252Z,17.40
2023-08-27T06:50:39.655Z,17.30
2023-08-27T06:53:06.771Z,17.40
2023-08-27T06:55:33.882Z,17.30
2023-08-27T06:58:01.772Z,17.40
2023-08-27T07:00:32.129Z,17.20
2023-08-27T07:02:59.688Z,17.20
2023-08-27T07:05:27.682Z,17.30
2023-08-27T07:07:54.811Z,17.20
2023-08-27T07:10:22.478Z,17.40
2023-08-27T07:12:49.508Z,17.10
2023-08-27T07:15:16.463Z,17.10
2023-08-27T07:17:45.017Z,17.30
2023-08-27T07:20:12.711Z,17.20
2023-08-27T07:22:39.948Z,17.20
2023-08-27T07:25:07.958Z,17.30
2023-08-27T07:27:37.726Z,17.30
2023-08-27T07:30:05.906Z,17.20
2023-08-27T07:32:34.222Z,17.30
2023-08-27T07:35:01.346Z,17.50
2023-08-27T07:37:33.817Z,17.50
2023-08-27T07:40:02.968Z,17.40
2023-08-27T07:42:29.934Z,17.60
2023-08-27T07:44:57.033Z,17.70
2023-08-27T07:47:24.307Z,17.60
2023-08-27T07:49:51.246Z,17.70
2023-08-27T07:52:18.395Z,17.70
2023-08-27T07:54:47.131Z,17.70
2023-08-27T07:57:14.158Z,17.90
2023-08-27T07:59:44.592Z,17.80
2023-08-27T08:02:11.703Z,18.10
2023-08-27T08:04:38.820Z,18.00
2023-08-27T08:07:05.701Z,18.00
2023-08-27T08:09:33.047Z,18.00
2023-08-27T08:12:00.022Z,18.10
2023-08-27T08:14:26.998Z,18.20
2023-08-27T08:16:54.433Z,18.40
2023-08-27T08:19:21.479Z,18.40
2023-08-27T08:21:48.431Z,18.40
2023-08-27T08:24:16.646Z,18.50
2023-08-27T08:26:44.017Z,18.50
2023-08-27T08:29:10.977Z,18.40
2023-08-27T08:31:38.593Z,18.60
2023-08-27T08:34:05.512Z,18.60
2023-08-27T08:36:34.190Z,18.60
2023-08-27T08:39:01.256Z,18.70
2023-08-27T08:41:29.232Z,18.70
2023-08-27T08:44:10.572Z,18.90
2023-08-27T08:46:38.772Z,18.90
2023-08-27T08:49:11.859Z,18.80
2023-08-27T08:51:39.710Z,18.80
2023-08-27T08:54:12.223Z,18.80
2023-08-27T08:56:47.524Z,18.90
2023-08-27T08:59:14.716Z,19.00
2023-08-27T09:01:43.375Z,19.00
2023-08-27T09:04:11.397Z,19.10
2023-08-27T09:06:40.003Z,19.00
2023-08-27T09:09:07.323Z,19.20
2023-08-27T09:11:37.424Z,19.10
2023-08-27T09:14:05.087Z,19.20
2023-08-27T09:16:32.182Z,19.30
2023-08-27T09:18:59.337Z,19.30
2023-08-27T09:21:26.307Z,19.50
2023-08-27T09:23:57.243Z,19.50
2023-08-27T09:26:24.312Z,19.60
2023-08-27T09:28:52.136Z,19.70
2023-08-27T09:31:42.058Z,19.60
2023-08-27T09:34:10.288Z,19.70
2023-08-27T09:36:39.195Z,19.80
2023-08-27T09:39:13.713Z,19.90
2023-08-27T09:41:45.462Z,20.10
2023-08-27T09:44:14.619Z,20.10
2023-08-27T09:46:43.598Z,20.10
2023-08-27T09:49:10.834Z,20.10
2023-08-27T09:51:40.476Z,20.10
2023-08-27T09:54:15.243Z,20.30
2023-08-27T09:56:47.078Z,20.40
2023-08-27T09:59:22.342Z,20.40
2023-08-27T10:01:51.931Z,20.60
2023-08-27T10:04:20.498Z,20.80
2023-08-27T10:06:49.441Z,20.90
2023-08-27T10:09:17.822Z,21.00
2023-08-27T10:11:46.677Z,20.90
2023-08-27T10:14:16.491Z,20.80
2023-08-27T10:16:44.297Z,20.80
2023-08-27T10:19:15.011Z,20.80
2023-08-27T10:21:42.343Z,20.80
2023-08-27T10:24:11.958Z,20.80
2023-08-27T10:26:43.526Z,20.80
2023-08-27T10:29:10.879Z,21.10
2023-08-27T10:31:38.740Z,21.30
2023-08-27T10:34:07.257Z,21.30
2023-08-27T10:36:38.876Z,21.40
2023-08-27T10:39:08.768Z,21.20
2023-08-27T10:41:36.554Z,21.20
2023-08-27T10:44:04.397Z,21.20
2023-08-27T10:46:32.860Z,21.20
2023-08-27T10:48:59.855Z,21.10
2023-08-27T10:51:33.048Z,20.90
2023-08-27T10:54:01.615Z,20.80
2023-08-27T10:56:28.492Z,20.70
2023-08-27T10:59:12.035Z,20.70
2023-08-27T11:01:55.090Z,20.50
2023-08-27T11:04:22.102Z,20.30
2023-08-27T11:06:50.498Z,20.10
2023-08-27T11:09:22.871Z,20.20
2023-08-27T11:12:26.046Z,20.30
2023-08-27T11:14:54.649Z,20.30
2023-08-27T11:17:30.870Z,20.40
2023-08-27T11:19:59.193Z,20.60
2023-08-27T11:22:26.690Z,20.60
2023-08-27T11:24:56.371Z,20.70
2023-08-27T11:27:25.208Z,20.90
2023-08-27T11:29:54.101Z,21.10
2023-08-27T11:32:25.303Z,21.20
2023-08-27T11:34:53.870Z,21.20
2023-08-27T11:37:30.941Z,21.30
2023-08-27T11:39:58.286Z,21.30
2023-08-27T11:42:25.407Z,21.40
2023-08-27T11:44:54.938Z,21.50
2023-08-27T11:47:25.369Z,21.60
2023-08-27T11:49:58.311Z,21.70
2023-08-27T11:52:27.997Z,21.90
2023-08-27T11:54:58.277Z,22.00
2023-08-27T11:57:27.373Z,22.00
2023-08-27T11:59:55.099Z,22.10
2023-08-27T12:02:22.309Z,22.00
2023-08-27T12:04:49.776Z,22.00
2023-08-27T12:07:29.780Z,22.00
2023-08-27T12:09:58.569Z,22.20
2023-08-27T12:12:29.786Z,22.20
2023-08-27T12:14:58.864Z,22.30
2023-08-27T12:17:34.491Z,22.30
2023-08-27T12:20:02.705Z,22.20
2023-08-27T12:22:29.852Z,22.20
2023-08-27T12:25:00.726Z,22.30
2023-08-27T12:27:29.010Z,22.40
2023-08-27T12:29:59.090Z,22.50
2023-08-27T12:32:34.105Z,22.70
2023-08-27T12:35:02.362Z,22.60
2023-08-27T12:37:29.449Z,22.60
2023-08-27T12:39:57.904Z,22.60
2023-08-27T12:42:26.669Z,22.50
2023-08-27T12:44:54.399Z,22.60
2023-08-27T12:47:21.505Z,22.60
2023-08-27T12:50:21.578Z,22.70
2023-08-27T12:52:49.033Z,22.80
2023-08-27T12:55:16.085Z,22.80
2023-08-27T12:57:43.168Z,22.80
2023-08-27T13:00:10.734Z,22.90
2023-08-27T13:02:37.763Z,22.70
2023-08-27T13:05:05.822Z,22.50
2023-08-27T13:07:33.625Z,22.40
2023-08-27T13:10:01.788Z,22.20
2023-08-27T13:12:28.750Z,22.00
2023-08-27T13:14:55.658Z,21.70
2023-08-27T13:17:23.165Z,21.30
2023-08-27T13:19:50.228Z,20.90
2023-08-27T13:22:17.331Z,20.50
2023-08-27T13:24:44.278Z,20.20
2023-08-27T13:27:13.748Z,19.90
2023-08-27T13:29:40.912Z,19.70
2023-08-27T13:32:08.042Z,19.50
2023-08-27T13:34:35.093Z,19.30
2023-08-27T13:37:02.208Z,19.20
2023-08-27T13:39:30.420Z,19.10
2023-08-27T13:42:03.330Z,19.10
2023-08-27T13:44:30.333Z,19.00
2023-08-27T13:46:57.296Z,18.70
2023-08-27T13:49:24.384Z,18.80
2023-08-27T13:51:51.642Z,18.60
2023-08-27T13:54:18.572Z,18.70
2023-08-27T13:56:45.719Z,18.50
2023-08-27T13:59:13.571Z,18.40
2023-08-27T14:01:42.997Z,18.20
2023-08-27T14:04:10.033Z,18.10
2023-08-27T14:06:37.165Z,18.00
2023-08-27T14:09:06.377Z,17.90
2023-08-27T14:11:36.987Z,18.00
2023-08-27T14:14:06.883Z,18.00
2023-08-27T14:16:33.806Z,18.20
2023-08-27T14:19:04.078Z,18.20
2023-08-27T14:21:31.043Z,18.40
2023-08-27T14:23:59.316Z,18.40
2023-08-27T14:26:26.659Z,18.40
2023-08-27T14:28:53.717Z,18.40
2023-08-27T14:31:20.912Z,18.60
2023-08-27T14:33:47.916Z,18.70
2023-08-27T14:36:15.653Z,18.70
2023-08-27T14:38:42.662Z,18.90
2023-08-27T14:41:10.129Z,19.20
2023-08-27T14:43:38.597Z,19.40
2023-08-27T14:46:08.132Z,19.60
2023-08-27T14:48:35.661Z,19.70
2023-08-27T14:51:02.885Z,19.70
2023-08-27T14:53:31.195Z,19.80
2023-08-27T14:55:59.173Z,19.90
2023-08-27T14:58:26.166Z,20.20
2023-08-27T15:00:55.728Z,20.30
2023-08-27T15:03:22.773Z,20.50
2023-08-27T15:05:49.955Z,20.50
2023-08-27T15:08:17.257Z,20.50
2023-08-27T15:10:44.200Z,20.20
2023-08-27T15:13:11.395Z,20.00
2023-08-27T15:15:38.755Z,19.80
2023-08-27T15:18:06.084Z,19.70
2023-08-27T15:20:33.111Z,19.70
2023-08-27T15:23:01.854Z,19.60
2023-08-27T15:25:28.775Z,19.70
2023-08-27T15:27:55.811Z,19.80
2023-08-27T15:30:23.183Z,20.10
2023-08-27T15:32:50.333Z,20.30
2023-08-27T15:35:19.470Z,20.50
2023-08-27T15:37:48.177Z,20.80
2023-08-27T15:40:18.579Z,20.90
2023-08-27T15:42:46.288Z,21.20
2023-08-27T15:45:13.299Z,21.40
2023-08-27T15:47:40.549Z,21.40
2023-08-27T15:50:07.912Z,21.50
2023-08-27T15:52:34.901Z,21.30
2023-08-27T15:55:02.539Z,21.20
2023-08-27T15:57:30.157Z,21.00
2023-08-27T15:59:57.225Z,21.00
2023-08-27T16:02:24.287Z,21.00
2023-08-27T16:04:52.059Z,20.80
2023-08-27T16:07:19.458Z,20.60
2023-08-27T16:09:48.329Z,20.60
2023-08-27T16:12:17.474Z,20.40
2023-08-27T16:14:44.518Z,20.30
2023-08-27T16:17:12.823Z,20.40
2023-08-27T16:19:39.871Z,20.70
2023-08-27T16:22:07.916Z,21.30
2023-08-27T16:24:34.977Z,21.70
2023-08-27T16:27:03.944Z,22.00
2023-08-27T16:29:30.947Z,22.30
2023-08-27T16:31:57.965Z,22.50
2023-08-27T16:34:25.264Z,22.70
2023-08-27T16:36:52.334Z,22.80
2023-08-27T16:39:19.566Z,22.90
2023-08-27T16:41:46.629Z,23.00
2023-08-27T16:44:13.560Z,23.30
2023-08-27T16:46:41.792Z,23.40
2023-08-27T16:49:08.768Z,23.50
2023-08-27T16:51:37.280Z,23.60
2023-08-27T16:54:05.083Z,23.60
2023-08-27T16:56:32.281Z,23.60
2023-08-27T16:58:59.352Z,23.70
2023-08-27T17:01:26.462Z,23.70
2023-08-27T17:03:54.463Z,23.90
2023-08-27T17:06:21.506Z,24.00
2023-08-27T17:08:48.621Z,24.20
2023-08-27T17:11:17.554Z,24.30
2023-08-27T17:13:45.981Z,24.30
2023-08-27T17:16:13.097Z,24.40
2023-08-27T17:18:40.649Z,24.40
2023-08-27T17:21:08.401Z,24.50
2023-08-27T17:23:35.427Z,24.50
2023-08-27T17:26:02.602Z,24.40
2023-08-27T17:28:29.882Z,24.30
2023-08-27T17:31:01.719Z,24.10
2023-08-27T17:33:30.718Z,23.90
2023-08-27T17:35:57.864Z,23.90
2023-08-27T17:38:25.070Z,23.70
2023-08-27T17:40:53.909Z,23.50
2023-08-27T17:43:21.664Z,23.10
2023-08-27T17:45:48.842Z,22.90
2023-08-27T17:48:15.999Z,22.70
2023-08-27T17:50:46.800Z,22.50
2023-08-27T17:53:13.907Z,22.20
2023-08-27T17:55:41.018Z,22.00
2023-08-27T17:58:07.933Z,21.80
2023-08-27T18:00:34.883Z,21.80
2023-08-27T18:03:02.927Z,21.70
2023-08-27T18:05:30.293Z,21.50
2023-08-27T18:07:59.628Z,21.40
2023-08-27T18:10:26.870Z,21.30
2023-08-27T18:12:53.923Z,21.30
2023-08-27T18:15:20.984Z,21.20
2023-08-27T18:17:48.262Z,21.20
2023-08-27T18:20:15.383Z,21.20
2023-08-27T18:22:42.543Z,21.10
2023-08-27T18:25:10.223Z,21.10
2023-08-27T18:27:37.187Z,21.00
2023-08-27T18:30:05.199Z,21.00
2023-08-27T18:32:32.180Z,20.90
2023-08-27T18:34:59.524Z,21.00
2023-08-27T18:37:27.768Z,20.90
2023-08-27T18:39:54.862Z,20.90
2023-08-27T18:42:32.874Z,20.80
2023-08-27T18:45:01.689Z,20.60
2023-08-27T18:47:28.878Z,20.60
2023-08-27T18:49:56.019Z,20.60
2023-08-27T18:52:24.145Z,20.50
2023-08-27T18:54:52.206Z,20.40
2023-08-27T18:57:19.264Z,20.40
2023-08-27T18:59:46.219Z,20.30
2023-08-27T19:02:13.621Z,20.30
2023-08-27T19:04:41.340Z,20.20
2023-08-27T19:07:08.332Z,20.20
2023-08-27T19:09:37.024Z,20.20
2023-08-27T19:12:04.327Z,20.10
2023-08-27T19:14:33.712Z,20.00
2023-08-27T19:17:00.753Z,20.00
2023-08-27T19:19:28.121Z,20.00
2023-08-27T19:21:55.310Z,20.00
2023-08-27T19:24:22.591Z,20.00
2023-08-27T19:26:49.582Z,19.90
2023-08-27T19:29:16.684Z,19.90
2023-08-27T19:31:47.376Z,19.80
2023-08-27T19:34:15.333Z,19.90
2023-08-27T19:36:43.510Z,19.80
2023-08-27T19:39:13.330Z,19.80
2023-08-27T19:41:40.594Z,19.70
2023-08-27T19:44:07.577Z,19.70
2023-08-27T19:46:36.253Z,19.70
2023-08-27T19:49:03.926Z,19.80
2023-08-27T19:51:32.748Z,19.60
2023-08-27T19:53:59.656Z,19.60
2023-08-27T19:56:26.635Z,19.50
2023-08-27T19:58:53.544Z,19.40
2023-08-27T20:01:20.656Z,19.40
2023-08-27T20:03:47.635Z,19.40
2023-08-27T20:06:14.505Z,19.40
2023-08-27T20:08:41.890Z,19.30
2023-08-27T20:11:09.120Z,19.20
2023-08-27T20:13:36.045Z,19.20
2023-08-27T20:16:03.345Z,19.20
2023-08-27T20:18:30.355Z,19.20
2023-08-27T20:20:57.348Z,19.20
2023-08-27T20:23:24.388Z,19.10
2023-08-27T20:25:52.236Z,19.10
2023-08-27T20:28:19.500Z,19.10
2023-08-27T20:30:50.181Z,19.00
2023-08-27T20:33:17.325Z,19.00
2023-08-27T20:35:45.703Z,19.00
2023-08-27T20:38:12.658Z,19.00
2023-08-27T20:40:40.172Z,18.90
2023-08-27T20:43:07.594Z,18.90
2023-08-27T20:45:37.564Z,18.90
2023-08-27T20:48:04.866Z,18.80
2023-08-27T20:50:31.892Z,18.80
2023-08-27T20:52:59.184Z,18.80
2023-08-27T20:55:26.398Z,18.70
2023-08-27T20:57:53.499Z,18.70
2023-08-27T21:00:20.576Z,18.70
2023-08-27T21:02:47.554Z,18.60
2023-08-27T21:05:16.232Z,18.60
2023-08-27T21:07:43.520Z,18.60
2023-08-27T21:10:11.770Z,18.50
2023-08-27T21:12:39.246Z,18.50
2023-08-27T21:15:06.743Z,18.50
2023-08-27T21:17:33.812Z,18.40
2023-08-27T21:20:00.832Z,18.40
2023-08-27T21:22:28.346Z,18.30
2023-08-27T21:24:55.280Z,18.20
2023-08-27T21:27:22.264Z,18.10
2023-08-27T21:29:51.530Z,18.10
2023-08-27T21:32:18.564Z,18.10
2023-08-27T21:34:45.455Z,18.00
2023-08-27T21:37:14.884Z,18.00
2023-08-27T21:39:42.806Z,17.90
2023-08-27T21:42:09.678Z,17.90
2023-08-27T21:44:37.126Z,17.90
2023-08-27T21:47:04.187Z,17.80
2023-08-27T21:49:31.188Z,17.80
2023-08-27T21:51:58.189Z,17.80
2023-08-27T21:54:25.078Z,17.70
2023-08-27T21:56:52.049Z,17.70
2023-08-27T21:59:19.077Z,17.70
2023-08-27T22:01:46.155Z,17.60
2023-08-27T22:04:13.970Z,17.60
2023-08-27T22:06:40.948Z,17.50
2023-08-27T22:09:07.894Z,17.50
2023-08-27T22:11:34.801Z,17.40
2023-08-27T22:14:01.789Z,17.40
2023-08-27T22:16:29.373Z,17.40
2023-08-27T22:18:58.554Z,17.40
2023-08-27T22:21:29.057Z,17.30
2023-08-27T22:23:57.284Z,17.40
2023-08-27T22:26:24.282Z,17.30
2023-08-27T22:28:51.217Z,17.30
2023-08-27T22:31:18.335Z,17.30
2023-08-27T22:33:45.359Z,17.30
2023-08-27T22:36:12.351Z,17.30
2023-08-27T22:38:39.919Z,17.20
2023-08-27T22:41:06.872Z,17.20
2023-08-27T22:43:33.837Z,17.20
2023-08-27T22:46:02.532Z,17.20
2023-08-27T22:48:29.833Z,17.20
2023-08-27T22:50:57.044Z,17.20
2023-08-27T22:53:24.139Z,17.10
2023-08-27T22:55:51.119Z,17.30
2023-08-27T22:58:18.116Z,17.10
2023-08-27T23:00:45.104Z,17.20
2023-08-27T23:03:12.227Z,17.20
2023-08-27T23:05:39.221Z,17.20
2023-08-27T23:08:07.731Z,17.30
2023-08-27T23:10:34.641Z,17.30
2023-08-27T23:13:01.889Z,17.30
2023-08-27T23:15:31.733Z,17.30
2023-08-27T23:17:58.806Z,17.30
2023-08-27T23:20:26.135Z,17.30
2023-08-27T23:22:53.158Z,17.30
2023-08-27T23:25:20.166Z,17.30
2023-08-27T23:27:47.097Z,17.30
2023-08-27T23:30:15.195Z,17.30
2023-08-27T23:32:42.160Z,17.40
2023-08-27T23:35:10.820Z,17.40
2023-08-27T23:37:37.878Z,17.40
2023-08-27T23:40:07.591Z,17.30
2023-08-27T23:42:34.640Z,17.30
2023-08-27T23:45:01.942Z,17.30
2023-08-27T23:47:29.544Z,17.20
2023-08-27T23:49:56.505Z,17.20
2023-08-27T23:52:23.423Z,17.10
2023-08-27T23:54:51.103Z,17.10
2023-08-27T23:57:18.225Z,17.10
2023-08-27T23:59:45.190Z,17.10
